sensor_id;sensor_type;location;lat;lon;timestamp;P1;durP1;ratioP1;P2;durP2;ratioP2
14933;SDS011;7560;51.364;12.384;2023-02-23T00:02:01;84.32;;;31.33;;
14933;SDS011;7560;51.364;12.384;2023-02-23T00:07:04;49.65;;;21.67;;
14933;SDS011;7560;51.364;12.384;2023-02-23T00:12:06;31.60;;;17.00;;
14933;SDS011;7560;51.364;12.384;2023-02-23T00:17:11;27.83;;;15.57;;
14933;SDS011;7560;51.364;12.384;2023-02-23T00:22:15;25.52;;;15.00;;
14933;SDS011;7560;51.364;12.384;2023-02-23T00:27:17;24.67;;;14.85;;
14933;SDS011;7560;51.364;12.384;2023-02-23T00:32:22;24.92;;;15.07;;
14933;SDS011;7560;51.364;12.384;2023-02-23T00:37:25;25.02;;;14.65;;
14933;SDS011;7560;51.364;12.384;2023-02-23T00:42:26;23.00;;;14.02;;
14933;SDS011;7560;51.364;12.384;2023-02-23T00:47:32;24.48;;;14.60;;
14933;SDS011;7560;51.364;12.384;2023-02-23T00:52:36;22.77;;;12.93;;
14933;SDS011;7560;51.364;12.384;2023-02-23T00:57:38;26.02;;;14.32;;
14933;SDS011;7560;51.364;12.384;2023-02-23T01:02:40;21.92;;;14.20;;
14933;SDS011;7560;51.364;12.384;2023-02-23T01:07:42;22.08;;;13.43;;
14933;SDS011;7560;51.364;12.384;2023-02-23T01:12:48;26.52;;;14.45;;
14933;SDS011;7560;51.364;12.384;2023-02-23T01:17:51;22.83;;;13.65;;
14933;SDS011;7560;51.364;12.384;2023-02-23T01:22:53;26.27;;;14.27;;
14933;SDS011;7560;51.364;12.384;2023-02-23T01:27:55;23.38;;;14.82;;
14933;SDS011;7560;51.364;12.384;2023-02-23T01:32:57;24.48;;;14.27;;
14933;SDS011;7560;51.364;12.384;2023-02-23T01:37:59;23.00;;;13.50;;
14933;SDS011;7560;51.364;12.384;2023-02-23T01:48:19;23.00;;;13.50;;
14933;SDS011;7560;51.364;12.384;2023-02-23T01:53:25;22.48;;;13.50;;
14933;SDS011;7560;51.364;12.384;2023-02-23T01:58:29;24.27;;;13.55;;
14933;SDS011;7560;51.364;12.384;2023-02-23T02:03:34;26.23;;;14.70;;
14933;SDS011;7560;51.364;12.384;2023-02-23T02:08:41;22.33;;;13.77;;
14933;SDS011;7560;51.364;12.384;2023-02-23T02:13:47;24.10;;;14.70;;
14933;SDS011;7560;51.364;12.384;2023-02-23T02:50:51;20.55;;;13.35;;
14933;SDS011;7560;51.364;12.384;2023-02-23T02:56:13;24.75;;;14.57;;
14933;SDS011;7560;51.364;12.384;2023-02-23T03:01:20;23.08;;;13.57;;
14933;SDS011;7560;51.364;12.384;2023-02-23T03:06:59;23.65;;;13.77;;
14933;SDS011;7560;51.364;12.384;2023-02-23T03:12:32;23.88;;;14.07;;
14933;SDS011;7560;51.364;12.384;2023-02-23T03:18:29;21.20;;;12.85;;
14933;SDS011;7560;51.364;12.384;2023-02-23T03:35:06;20.10;;;12.70;;
14933;SDS011;7560;51.364;12.384;2023-02-23T03:40:36;21.05;;;12.80;;
14933;SDS011;7560;51.364;12.384;2023-02-23T03:45:59;22.40;;;13.60;;
14933;SDS011;7560;51.364;12.384;2023-02-23T03:51:21;19.38;;;12.55;;
14933;SDS011;7560;51.364;12.384;2023-02-23T03:56:47;23.85;;;14.25;;
14933;SDS011;7560;51.364;12.384;2023-02-23T04:02:10;22.08;;;13.13;;
14933;SDS011;7560;51.364;12.384;2023-02-23T04:07:34;19.30;;;12.40;;
14933;SDS011;7560;51.364;12.384;2023-02-23T04:18:28;24.13;;;14.75;;
14933;SDS011;7560;51.364;12.384;2023-02-23T04:23:33;40.53;;;23.85;;
14933;SDS011;7560;51.364;12.384;2023-02-23T04:28:36;20.48;;;12.65;;
14933;SDS011;7560;51.364;12.384;2023-02-23T04:33:38;20.48;;;12.95;;
14933;SDS011;7560;51.364;12.384;2023-02-23T04:38:41;18.40;;;11.68;;
14933;SDS011;7560;51.364;12.384;2023-02-23T04:43:47;18.50;;;12.40;;
14933;SDS011;7560;51.364;12.384;2023-02-23T04:48:49;28.48;;;16.75;;
14933;SDS011;7560;51.364;12.384;2023-02-23T04:53:51;20.35;;;12.50;;
14933;SDS011;7560;51.364;12.384;2023-02-23T04:58:53;20.73;;;11.70;;
14933;SDS011;7560;51.364;12.384;2023-02-23T05:03:55;19.13;;;12.15;;
14933;SDS011;7560;51.364;12.384;2023-02-23T05:08:57;19.17;;;12.23;;
14933;SDS011;7560;51.364;12.384;2023-02-23T05:13:59;20.70;;;12.98;;
14933;SDS011;7560;51.364;12.384;2023-02-23T05:19:01;19.13;;;12.30;;
14933;SDS011;7560;51.364;12.384;2023-02-23T05:24:04;19.52;;;12.68;;
14933;SDS011;7560;51.364;12.384;2023-02-23T05:29:06;18.30;;;11.07;;
14933;SDS011;7560;51.364;12.384;2023-02-23T05:34:07;17.80;;;11.88;;
14933;SDS011;7560;51.364;12.384;2023-02-23T05:39:10;17.83;;;11.88;;
14933;SDS011;7560;51.364;12.384;2023-02-23T05:44:12;21.05;;;12.15;;
14933;SDS011;7560;51.364;12.384;2023-02-23T05:49:14;22.00;;;14.32;;
14933;SDS011;7560;51.364;12.384;2023-02-23T05:54:16;22.60;;;12.85;;
14933;SDS011;7560;51.364;12.384;2023-02-23T05:59:18;19.90;;;12.65;;
14933;SDS011;7560;51.364;12.384;2023-02-23T06:04:20;20.88;;;13.10;;
14933;SDS011;7560;51.364;12.384;2023-02-23T06:09:23;21.30;;;13.15;;
14933;SDS011;7560;51.364;12.384;2023-02-23T06:14:25;20.15;;;13.30;;
14933;SDS011;7560;51.364;12.384;2023-02-23T06:19:29;22.65;;;14.93;;
14933;SDS011;7560;51.364;12.384;2023-02-23T06:24:32;25.67;;;12.93;;
14933;SDS011;7560;51.364;12.384;2023-02-23T06:29:35;21.50;;;13.30;;
14933;SDS011;7560;51.364;12.384;2023-02-23T06:34:38;21.15;;;13.15;;
14933;SDS011;7560;51.364;12.384;2023-02-23T06:39:40;19.30;;;12.80;;
14933;SDS011;7560;51.364;12.384;2023-02-23T06:44:42;17.75;;;12.13;;
14933;SDS011;7560;51.364;12.384;2023-02-23T06:49:44;19.08;;;12.57;;
14933;SDS011;7560;51.364;12.384;2023-02-23T06:54:48;20.70;;;12.70;;
14933;SDS011;7560;51.364;12.384;2023-02-23T06:59:50;22.27;;;13.15;;
14933;SDS011;7560;51.364;12.384;2023-02-23T07:04:53;23.10;;;12.70;;
14933;SDS011;7560;51.364;12.384;2023-02-23T07:09:55;25.17;;;12.55;;
14933;SDS011;7560;51.364;12.384;2023-02-23T07:14:58;21.55;;;12.85;;
14933;SDS011;7560;51.364;12.384;2023-02-23T07:20:00;21.58;;;13.70;;
14933;SDS011;7560;51.364;12.384;2023-02-23T07:25:03;20.35;;;12.82;;
14933;SDS011;7560;51.364;12.384;2023-02-23T07:30:07;18.70;;;12.15;;
14933;SDS011;7560;51.364;12.384;2023-02-23T07:35:12;21.48;;;13.57;;
14933;SDS011;7560;51.364;12.384;2023-02-23T07:40:15;17.90;;;12.32;;
14933;SDS011;7560;51.364;12.384;2023-02-23T07:45:17;21.52;;;13.68;;
14933;SDS011;7560;51.364;12.384;2023-02-23T07:50:19;19.95;;;12.38;;
14933;SDS011;7560;51.364;12.384;2023-02-23T07:55:22;17.30;;;12.10;;
14933;SDS011;7560;51.364;12.384;2023-02-23T08:00:23;30.15;;;19.70;;
14933;SDS011;7560;51.364;12.384;2023-02-23T08:05:27;18.52;;;12.50;;
14933;SDS011;7560;51.364;12.384;2023-02-23T08:10:29;23.60;;;14.85;;
14933;SDS011;7560;51.364;12.384;2023-02-23T08:15:31;23.60;;;13.25;;
14933;SDS011;7560;51.364;12.384;2023-02-23T08:20:33;21.88;;;13.10;;
14933;SDS011;7560;51.364;12.384;2023-02-23T08:25:35;22.23;;;13.30;;
14933;SDS011;7560;51.364;12.384;2023-02-23T08:30:37;20.75;;;12.88;;
14933;SDS011;7560;51.364;12.384;2023-02-23T08:35:41;19.52;;;13.10;;
14933;SDS011;7560;51.364;12.384;2023-02-23T08:40:45;20.42;;;13.45;;
14933;SDS011;7560;51.364;12.384;2023-02-23T08:45:47;18.63;;;12.88;;
14933;SDS011;7560;51.364;12.384;2023-02-23T08:50:49;23.55;;;13.80;;
14933;SDS011;7560;51.364;12.384;2023-02-23T08:55:59;22.15;;;13.30;;
14933;SDS011;7560;51.364;12.384;2023-02-23T09:01:03;20.45;;;13.75;;
14933;SDS011;7560;51.364;12.384;2023-02-23T09:06:07;22.25;;;14.00;;
14933;SDS011;7560;51.364;12.384;2023-02-23T09:11:12;22.23;;;14.73;;
14933;SDS011;7560;51.364;12.384;2023-02-23T09:16:14;22.73;;;14.75;;
14933;SDS011;7560;51.364;12.384;2023-02-23T09:21:17;24.27;;;15.43;;
14933;SDS011;7560;51.364;12.384;2023-02-23T09:26:22;29.10;;;15.77;;
14933;SDS011;7560;51.364;12.384;2023-02-23T09:31:26;25.30;;;16.38;;
14933;SDS011;7560;51.364;12.384;2023-02-23T09:36:29;25.10;;;16.02;;
14933;SDS011;7560;51.364;12.384;2023-02-23T09:41:44;24.65;;;16.27;;
14933;SDS011;7560;51.364;12.384;2023-02-23T09:52:19;23.45;;;16.42;;
14933;SDS011;7560;51.364;12.384;2023-02-23T09:57:25;26.10;;;16.80;;
14933;SDS011;7560;51.364;12.384;2023-02-23T10:08:58;27.15;;;17.05;;
14933;SDS011;7560;51.364;12.384;2023-02-23T10:19:09;35.70;;;22.42;;
14933;SDS011;7560;51.364;12.384;2023-02-23T10:24:34;27.25;;;18.10;;
14933;SDS011;7560;51.364;12.384;2023-02-23T10:29:41;28.35;;;18.45;;
14933;SDS011;7560;51.364;12.384;2023-02-23T10:34:48;32.95;;;19.63;;
14933;SDS011;7560;51.364;12.384;2023-02-23T10:39:54;30.55;;;18.92;;
14933;SDS011;7560;51.364;12.384;2023-02-23T10:44:56;29.70;;;18.80;;
14933;SDS011;7560;51.364;12.384;2023-02-23T10:49:59;30.92;;;19.48;;
14933;SDS011;7560;51.364;12.384;2023-02-23T10:55:05;30.20;;;18.67;;
14933;SDS011;7560;51.364;12.384;2023-02-23T11:10:36;35.55;;;20.92;;
14933;SDS011;7560;51.364;12.384;2023-02-23T11:15:38;31.83;;;20.38;;
14933;SDS011;7560;51.364;12.384;2023-02-23T11:20:51;36.63;;;22.80;;
14933;SDS011;7560;51.364;12.384;2023-02-23T11:26:00;36.88;;;22.33;;
14933;SDS011;7560;51.364;12.384;2023-02-23T11:31:14;33.67;;;22.05;;
14933;SDS011;7560;51.364;12.384;2023-02-23T11:36:27;33.83;;;22.65;;
14933;SDS011;7560;51.364;12.384;2023-02-23T11:41:33;40.20;;;22.83;;
14933;SDS011;7560;51.364;12.384;2023-02-23T11:46:37;35.47;;;22.65;;
14933;SDS011;7560;51.364;12.384;2023-02-23T11:51:40;34.67;;;23.20;;
14933;SDS011;7560;51.364;12.384;2023-02-23T11:56:49;34.25;;;21.35;;
14933;SDS011;7560;51.364;12.384;2023-02-23T12:01:53;35.05;;;22.17;;
14933;SDS011;7560;51.364;12.384;2023-02-23T12:12:29;39.63;;;24.02;;
14933;SDS011;7560;51.364;12.384;2023-02-23T12:17:41;43.65;;;24.88;;
14933;SDS011;7560;51.364;12.384;2023-02-23T12:22:53;39.22;;;23.98;;
14933;SDS011;7560;51.364;12.384;2023-02-23T12:28:16;39.28;;;24.15;;
14933;SDS011;7560;51.364;12.384;2023-02-23T12:33:39;40.25;;;23.23;;
14933;SDS011;7560;51.364;12.384;2023-02-23T12:38:49;37.60;;;23.25;;
14933;SDS011;7560;51.364;12.384;2023-02-23T12:43:58;40.25;;;24.48;;
14933;SDS011;7560;51.364;12.384;2023-02-23T12:49:18;40.90;;;25.10;;
14933;SDS011;7560;51.364;12.384;2023-02-23T12:54:28;41.65;;;25.60;;
14933;SDS011;7560;51.364;12.384;2023-02-23T13:15:28;43.85;;;25.77;;
14933;SDS011;7560;51.364;12.384;2023-02-23T13:31:36;45.08;;;26.48;;
14933;SDS011;7560;51.364;12.384;2023-02-23T13:36:44;47.28;;;27.90;;
14933;SDS011;7560;51.364;12.384;2023-02-23T13:47:04;46.38;;;26.60;;
14933;SDS011;7560;51.364;12.384;2023-02-23T13:57:38;48.45;;;26.17;;
14933;SDS011;7560;51.364;12.384;2023-02-23T14:02:44;50.30;;;27.73;;
14933;SDS011;7560;51.364;12.384;2023-02-23T14:07:56;49.90;;;27.42;;
14933;SDS011;7560;51.364;12.384;2023-02-23T14:13:05;51.03;;;28.23;;
14933;SDS011;7560;51.364;12.384;2023-02-23T14:38:43;52.80;;;30.10;;
14933;SDS011;7560;51.364;12.384;2023-02-23T14:43:52;53.38;;;29.98;;
14933;SDS011;7560;51.364;12.384;2023-02-23T14:49:00;51.10;;;29.88;;
14933;SDS011;7560;51.364;12.384;2023-02-23T14:54:29;52.15;;;29.88;;
14933;SDS011;7560;51.364;12.384;2023-02-23T14:59:40;53.13;;;30.55;;
14933;SDS011;7560;51.364;12.384;2023-02-23T15:04:46;52.35;;;29.80;;
14933;SDS011;7560;51.364;12.384;2023-02-23T15:09:49;62.45;;;33.40;;
14933;SDS011;7560;51.364;12.384;2023-02-23T15:14:55;55.67;;;30.05;;
14933;SDS011;7560;51.364;12.384;2023-02-23T15:20:03;57.45;;;30.85;;
14933;SDS011;7560;51.364;12.384;2023-02-23T15:25:18;51.65;;;29.35;;
14933;SDS011;7560;51.364;12.384;2023-02-23T15:30:29;52.85;;;29.38;;
14933;SDS011;7560;51.364;12.384;2023-02-23T15:36:24;61.85;;;30.90;;
14933;SDS011;7560;51.364;12.384;2023-02-23T15:40:58;54.38;;;31.30;;
14933;SDS011;7560;51.364;12.384;2023-02-23T15:46:11;53.97;;;28.65;;
14933;SDS011;7560;51.364;12.384;2023-02-23T15:51:58;60.70;;;30.67;;
14933;SDS011;7560;51.364;12.384;2023-02-23T15:57:03;64.00;;;32.10;;
14933;SDS011;7560;51.364;12.384;2023-02-23T16:02:12;62.35;;;31.95;;
14933;SDS011;7560;51.364;12.384;2023-02-23T16:07:23;66.78;;;33.38;;
14933;SDS011;7560;51.364;12.384;2023-02-23T16:12:31;63.50;;;32.40;;
14933;SDS011;7560;51.364;12.384;2023-02-23T16:17:44;66.15;;;32.92;;
14933;SDS011;7560;51.364;12.384;2023-02-23T16:22:48;69.35;;;32.58;;
14933;SDS011;7560;51.364;12.384;2023-02-23T16:27:58;65.43;;;32.45;;
14933;SDS011;7560;51.364;12.384;2023-02-23T16:33:26;62.08;;;32.85;;
14933;SDS011;7560;51.364;12.384;2023-02-23T16:43:43;69.85;;;34.67;;
14933;SDS011;7560;51.364;12.384;2023-02-23T16:48:46;70.45;;;34.38;;
14933;SDS011;7560;51.364;12.384;2023-02-23T16:53:49;77.30;;;36.05;;
14933;SDS011;7560;51.364;12.384;2023-02-23T16:58:57;77.88;;;36.20;;
14933;SDS011;7560;51.364;12.384;2023-02-23T17:04:03;77.72;;;36.53;;
14933;SDS011;7560;51.364;12.384;2023-02-23T17:09:08;77.65;;;36.78;;
14933;SDS011;7560;51.364;12.384;2023-02-23T17:14:18;77.00;;;37.45;;
14933;SDS011;7560;51.364;12.384;2023-02-23T17:19:29;76.13;;;37.08;;
14933;SDS011;7560;51.364;12.384;2023-02-23T17:24:32;71.45;;;35.92;;
14933;SDS011;7560;51.364;12.384;2023-02-23T17:29:35;80.80;;;38.58;;
14933;SDS011;7560;51.364;12.384;2023-02-23T17:34:37;101.60;;;54.20;;
14933;SDS011;7560;51.364;12.384;2023-02-23T17:39:40;80.43;;;40.35;;
14933;SDS011;7560;51.364;12.384;2023-02-23T17:44:43;86.13;;;38.97;;
14933;SDS011;7560;51.364;12.384;2023-02-23T17:49:45;78.13;;;37.40;;
14933;SDS011;7560;51.364;12.384;2023-02-23T17:54:52;80.68;;;38.67;;
14933;SDS011;7560;51.364;12.384;2023-02-23T17:59:59;84.00;;;39.80;;
14933;SDS011;7560;51.364;12.384;2023-02-23T18:05:00;82.43;;;40.05;;
14933;SDS011;7560;51.364;12.384;2023-02-23T18:10:10;87.82;;;41.58;;
14933;SDS011;7560;51.364;12.384;2023-02-23T18:15:14;87.57;;;40.78;;
14933;SDS011;7560;51.364;12.384;2023-02-23T18:20:19;92.20;;;40.88;;
14933;SDS011;7560;51.364;12.384;2023-02-23T18:25:26;84.97;;;40.08;;
14933;SDS011;7560;51.364;12.384;2023-02-23T18:30:29;81.28;;;38.53;;
14933;SDS011;7560;51.364;12.384;2023-02-23T18:35:32;82.82;;;39.13;;
14933;SDS011;7560;51.364;12.384;2023-02-23T18:40:38;98.65;;;43.17;;
14933;SDS011;7560;51.364;12.384;2023-02-23T18:45:41;89.40;;;42.13;;
14933;SDS011;7560;51.364;12.384;2023-02-23T18:50:43;58.30;;;30.98;;
14933;SDS011;7560;51.364;12.384;2023-02-23T18:55:46;54.95;;;28.83;;
14933;SDS011;7560;51.364;12.384;2023-02-23T19:00:51;47.55;;;27.23;;
14933;SDS011;7560;51.364;12.384;2023-02-23T19:05:55;44.13;;;25.13;;
14933;SDS011;7560;51.364;12.384;2023-02-23T19:10:59;40.13;;;23.30;;
14933;SDS011;7560;51.364;12.384;2023-02-23T19:16:04;43.00;;;24.13;;
14933;SDS011;7560;51.364;12.384;2023-02-23T19:21:08;46.63;;;26.10;;
14933;SDS011;7560;51.364;12.384;2023-02-23T19:26:10;45.03;;;25.00;;
14933;SDS011;7560;51.364;12.384;2023-02-23T19:31:26;44.50;;;25.23;;
14933;SDS011;7560;51.364;12.384;2023-02-23T19:36:33;51.58;;;26.83;;
14933;SDS011;7560;51.364;12.384;2023-02-23T19:41:39;45.25;;;25.45;;
14933;SDS011;7560;51.364;12.384;2023-02-23T19:46:42;46.47;;;25.17;;
14933;SDS011;7560;51.364;12.384;2023-02-23T19:51:48;50.17;;;27.05;;
14933;SDS011;7560;51.364;12.384;2023-02-23T19:56:53;50.00;;;26.33;;
14933;SDS011;7560;51.364;12.384;2023-02-23T20:02:03;51.10;;;27.60;;
14933;SDS011;7560;51.364;12.384;2023-02-23T20:07:05;46.35;;;25.95;;
14933;SDS011;7560;51.364;12.384;2023-02-23T20:12:17;46.47;;;26.13;;
14933;SDS011;7560;51.364;12.384;2023-02-23T20:17:33;42.78;;;25.35;;
14933;SDS011;7560;51.364;12.384;2023-02-23T20:22:36;41.42;;;24.13;;
14933;SDS011;7560;51.364;12.384;2023-02-23T20:27:42;38.60;;;21.80;;
14933;SDS011;7560;51.364;12.384;2023-02-23T20:32:46;32.42;;;19.08;;
14933;SDS011;7560;51.364;12.384;2023-02-23T20:37:49;29.25;;;18.05;;
14933;SDS011;7560;51.364;12.384;2023-02-23T20:42:54;31.30;;;18.33;;
14933;SDS011;7560;51.364;12.384;2023-02-23T20:47:58;34.45;;;20.52;;
14933;SDS011;7560;51.364;12.384;2023-02-23T20:53:02;36.90;;;20.92;;
14933;SDS011;7560;51.364;12.384;2023-02-23T20:58:06;37.97;;;21.65;;
14933;SDS011;7560;51.364;12.384;2023-02-23T21:03:09;35.25;;;21.70;;
14933;SDS011;7560;51.364;12.384;2023-02-23T21:08:16;38.65;;;21.10;;
14933;SDS011;7560;51.364;12.384;2023-02-23T21:13:19;40.28;;;23.42;;
14933;SDS011;7560;51.364;12.384;2023-02-23T21:18:23;40.75;;;23.48;;
14933;SDS011;7560;51.364;12.384;2023-02-23T21:23:26;41.75;;;24.33;;
14933;SDS011;7560;51.364;12.384;2023-02-23T21:28:29;38.30;;;21.92;;
14933;SDS011;7560;51.364;12.384;2023-02-23T21:33:32;40.53;;;22.95;;
14933;SDS011;7560;51.364;12.384;2023-02-23T21:38:36;45.33;;;24.83;;
14933;SDS011;7560;51.364;12.384;2023-02-23T21:43:40;42.15;;;23.27;;
14933;SDS011;7560;51.364;12.384;2023-02-23T21:48:43;40.30;;;21.77;;
14933;SDS011;7560;51.364;12.384;2023-02-23T21:53:46;39.78;;;22.05;;
14933;SDS011;7560;51.364;12.384;2023-02-23T21:58:51;37.55;;;20.73;;
14933;SDS011;7560;51.364;12.384;2023-02-23T22:03:56;37.00;;;20.70;;
14933;SDS011;7560;51.364;12.384;2023-02-23T22:08:58;40.40;;;21.67;;
14933;SDS011;7560;51.364;12.384;2023-02-23T22:14:01;40.45;;;21.55;;
14933;SDS011;7560;51.364;12.384;2023-02-23T22:19:06;40.63;;;22.15;;
14933;SDS011;7560;51.364;12.384;2023-02-23T22:24:13;33.97;;;18.90;;
14933;SDS011;7560;51.364;12.384;2023-02-23T22:29:17;36.35;;;18.73;;
14933;SDS011;7560;51.364;12.384;2023-02-23T22:34:23;35.40;;;17.75;;
14933;SDS011;7560;51.364;12.384;2023-02-23T22:39:27;30.33;;;17.10;;
14933;SDS011;7560;51.364;12.384;2023-02-23T22:44:36;37.30;;;19.30;;
14933;SDS011;7560;51.364;12.384;2023-02-23T22:49:40;37.33;;;19.05;;
14933;SDS011;7560;51.364;12.384;2023-02-23T22:54:58;35.15;;;17.40;;
14933;SDS011;7560;51.364;12.384;2023-02-23T23:00:01;36.70;;;17.83;;
14933;SDS011;7560;51.364;12.384;2023-02-23T23:05:07;37.38;;;19.27;;
14933;SDS011;7560;51.364;12.384;2023-02-23T23:10:10;35.22;;;17.73;;
14933;SDS011;7560;51.364;12.384;2023-02-23T23:15:18;35.28;;;17.92;;
14933;SDS011;7560;51.364;12.384;2023-02-23T23:20:20;34.35;;;17.55;;
14933;SDS011;7560;51.364;12.384;2023-02-23T23:25:26;35.22;;;17.27;;
14933;SDS011;7560;51.364;12.384;2023-02-23T23:30:33;33.58;;;17.30;;
14933;SDS011;7560;51.364;12.384;2023-02-23T23:35:37;31.13;;;16.05;;
14933;SDS011;7560;51.364;12.384;2023-02-23T23:40:49;36.13;;;16.70;;
14933;SDS011;7560;51.364;12.384;2023-02-23T23:45:53;30.35;;;15.70;;
14933;SDS011;7560;51.364;12.384;2023-02-23T23:51:00;30.15;;;15.85;;
14933;SDS011;7560;51.364;12.384;2023-02-23T23:56:06;28.77;;;15.20;;
